createdAt,value
2022-10-25T00:01:46.039Z,26.50
2022-10-25T00:04:14.487Z,26.38
2022-10-25T00:06:42.372Z,24.08
2022-10-25T00:09:09.727Z,24.85
2022-10-25T00:11:37.107Z,28.80
2022-10-25T00:14:07.332Z,25.65
2022-10-25T00:16:37.358Z,28.40
2022-10-25T00:19:07.825Z,23.65
2022-10-25T00:21:35.037Z,23.77
2022-10-25T00:24:02.303Z,24.20
2022-10-25T00:26:29.560Z,26.67
2022-10-25T00:28:57.314Z,23.20
2022-10-25T00:31:24.998Z,25.73
2022-10-25T00:33:52.287Z,24.48
2022-10-25T00:36:22.697Z,26.08
2022-10-25T00:38:50.566Z,27.88
2022-10-25T00:41:21.494Z,24.75
2022-10-25T00:43:54.448Z,25.02
2022-10-25T00:46:26.961Z,24.75
2022-10-25T00:49:19.009Z,25.75
2022-10-25T00:51:48.552Z,22.95
2022-10-25T00:56:57.722Z,27.02
2022-10-25T00:59:27.775Z,21.45
2022-10-25T01:01:56.098Z,24.23
2022-10-25T01:04:28.964Z,24.85
2022-10-25T01:06:56.646Z,23.25
2022-10-25T01:09:27.007Z,24.02
2022-10-25T01:11:54.278Z,24.88
2022-10-25T01:14:27.041Z,23.45
2022-10-25T01:17:01.620Z,28.45
2022-10-25T01:19:46.974Z,23.45
2022-10-25T01:23:11.709Z,24.95
2022-10-25T01:26:15.029Z,29.70
2022-10-25T01:28:51.226Z,25.83
2022-10-25T01:31:37.139Z,26.63
2022-10-25T01:34:39.606Z,25.95
2022-10-25T01:37:27.851Z,27.65
2022-10-25T01:40:07.023Z,25.20
2022-10-25T01:42:42.921Z,24.48
2022-10-25T01:47:52.853Z,22.65
2022-10-25T01:50:28.240Z,26.88
2022-10-25T01:52:55.704Z,25.48
2022-10-25T01:55:27.860Z,30.50
2022-10-25T01:58:08.085Z,33.40
2022-10-25T02:00:46.130Z,31.75
2022-10-25T02:03:33.072Z,29.25
2022-10-25T02:06:09.104Z,31.52
2022-10-25T02:11:17.475Z,31.13
2022-10-25T02:13:53.847Z,26.75
2022-10-25T02:16:25.889Z,28.85
2022-10-25T02:18:59.102Z,26.05
2022-10-25T02:21:28.382Z,24.88
2022-10-25T02:23:57.958Z,29.48
2022-10-25T02:26:28.440Z,28.73
2022-10-25T02:28:57.520Z,30.25
2022-10-25T02:31:25.862Z,28.30
2022-10-25T02:33:56.436Z,24.65
2022-10-25T02:36:24.669Z,23.65
2022-10-25T02:38:54.939Z,25.27
2022-10-25T02:41:25.055Z,23.33
2022-10-25T02:43:52.441Z,23.77
2022-10-25T02:46:26.447Z,24.17
2022-10-25T02:48:54.057Z,24.17
2022-10-25T02:51:25.374Z,24.48
2022-10-25T02:53:56.813Z,30.33
2022-10-25T02:56:24.356Z,24.45
2022-10-25T02:58:54.721Z,21.73
2022-10-25T03:01:29.565Z,22.50
2022-10-25T03:03:57.074Z,27.15
2022-10-25T03:06:24.326Z,21.85
2022-10-25T03:08:51.605Z,23.83
2022-10-25T03:11:18.925Z,26.90
2022-10-25T03:13:46.189Z,26.15
2022-10-25T03:16:13.427Z,22.95
2022-10-25T03:18:42.787Z,25.27
2022-10-25T03:21:10.279Z,21.55
2022-10-25T03:23:37.538Z,24.20
2022-10-25T03:26:07.949Z,25.88
2022-10-25T03:28:38.492Z,25.88
2022-10-25T03:31:14.888Z,21.52
2022-10-25T03:33:45.684Z,22.58
2022-10-25T03:36:13.110Z,26.05
2022-10-25T03:38:46.935Z,25.33
2022-10-25T03:41:14.144Z,23.15
2022-10-25T03:43:41.359Z,26.98
2022-10-25T03:46:08.596Z,22.48
2022-10-25T03:48:35.876Z,25.70
2022-10-25T03:51:15.164Z,24.30
2022-10-25T03:53:56.177Z,24.25
2022-10-25T03:56:23.696Z,21.77
2022-10-25T03:58:50.956Z,24.15
2022-10-25T04:01:18.388Z,22.73
2022-10-25T04:03:45.750Z,22.50
2022-10-25T04:06:15.495Z,25.00
2022-10-25T04:08:42.729Z,21.85
2022-10-25T04:11:09.952Z,26.40
2022-10-25T04:13:37.183Z,25.00
2022-10-25T04:16:08.570Z,23.17
2022-10-25T04:18:36.379Z,21.75
2022-10-25T04:21:03.960Z,23.48
2022-10-25T04:23:36.412Z,28.65
2022-10-25T04:26:03.782Z,23.77
2022-10-25T04:28:32.474Z,24.88
2022-10-25T04:30:59.776Z,23.17
2022-10-25T04:33:27.040Z,25.35
2022-10-25T04:35:56.378Z,23.33
2022-10-25T04:38:26.468Z,24.38
2022-10-25T04:40:57.955Z,22.83
2022-10-25T04:43:27.024Z,25.40
2022-10-25T04:45:54.964Z,22.80
2022-10-25T04:48:23.385Z,22.73
2022-10-25T04:50:51.994Z,20.48
2022-10-25T04:53:19.316Z,23.33
2022-10-25T04:56:46.825Z,22.65
2022-10-25T04:58:49.976Z,21.02
2022-10-25T05:01:18.275Z,22.50
2022-10-25T05:03:46.288Z,24.35
2022-10-25T05:06:19.185Z,22.10
2022-10-25T05:08:49.116Z,23.08
2022-10-25T05:11:22.803Z,19.95
2022-10-25T05:13:50.246Z,15.80
2022-10-25T05:16:23.686Z,15.43
2022-10-25T05:18:57.968Z,12.88
2022-10-25T05:22:17.617Z,15.18
2022-10-25T05:24:35.213Z,14.13
2022-10-25T05:27:04.817Z,14.35
2022-10-25T05:29:32.134Z,14.80
2022-10-25T05:32:17.068Z,12.15
2022-10-25T05:34:45.884Z,12.80
2022-10-25T05:37:13.240Z,12.60
2022-10-25T05:39:43.153Z,12.90
2022-10-25T05:42:11.549Z,23.33
2022-10-25T05:44:38.754Z,14.15
2022-10-25T05:47:08.389Z,11.30
2022-10-25T05:49:39.623Z,14.00
2022-10-25T05:52:07.254Z,14.48
2022-10-25T05:54:34.697Z,13.38
2022-10-25T05:57:08.037Z,13.32
2022-10-25T05:59:35.284Z,11.63
2022-10-25T06:02:02.605Z,14.45
2022-10-25T06:04:30.206Z,14.50
2022-10-25T06:06:58.065Z,13.85
2022-10-25T06:09:25.387Z,12.90
2022-10-25T06:11:52.636Z,14.43
2022-10-25T06:14:19.988Z,13.52
2022-10-25T06:16:47.219Z,12.25
2022-10-25T06:19:16.984Z,10.70
2022-10-25T06:21:44.540Z,9.70
2022-10-25T06:24:11.961Z,11.95
2022-10-25T06:26:42.304Z,9.15
2022-10-25T06:29:09.899Z,12.82
2022-10-25T06:31:46.886Z,12.77
2022-10-25T06:34:14.183Z,12.73
2022-10-25T06:36:41.469Z,17.77
2022-10-25T06:39:08.685Z,15.75
2022-10-25T06:41:37.081Z,8.95
2022-10-25T06:44:06.602Z,11.93
2022-10-25T06:46:57.914Z,9.73
2022-10-25T06:49:24.714Z,7.95
2022-10-25T06:51:54.580Z,11.07
2022-10-25T06:54:22.090Z,9.20
2022-10-25T06:56:49.319Z,9.82
2022-10-25T06:59:17.107Z,10.38
2022-10-25T07:01:44.483Z,8.70
2022-10-25T07:04:12.101Z,10.73
2022-10-25T07:06:39.532Z,13.82
2022-10-25T07:09:09.419Z,16.40
2022-10-25T07:11:36.772Z,7.45
2022-10-25T07:14:04.680Z,9.60
2022-10-25T07:16:32.689Z,10.63
2022-10-25T07:19:04.110Z,7.30
2022-10-25T07:21:33.145Z,7.15
2022-10-25T07:24:00.795Z,9.27
2022-10-25T07:26:34.088Z,9.75
2022-10-25T07:29:03.338Z,11.15
2022-10-25T07:31:36.538Z,8.77
2022-10-25T07:34:05.434Z,13.23
2022-10-25T07:36:33.730Z,8.68
2022-10-25T07:39:01.085Z,7.72
2022-10-25T07:41:28.580Z,12.65
2022-10-25T07:43:55.992Z,14.80
2022-10-25T07:46:23.838Z,13.75
2022-10-25T07:48:52.552Z,13.55
2022-10-25T07:51:19.925Z,6.30
2022-10-25T07:53:47.560Z,6.03
2022-10-25T07:56:20.564Z,6.25
2022-10-25T08:01:28.047Z,7.30
2022-10-25T08:03:56.437Z,24.60
2022-10-25T08:06:26.567Z,8.13
2022-10-25T08:08:54.364Z,6.85
2022-10-25T08:11:21.576Z,9.45
2022-10-25T08:13:50.713Z,7.47
2022-10-25T08:16:20.460Z,7.88
2022-10-25T08:18:47.951Z,7.68
2022-10-25T08:21:15.262Z,8.32
2022-10-25T08:23:42.756Z,9.10
2022-10-25T08:26:09.993Z,7.85
2022-10-25T08:28:37.258Z,10.43
2022-10-25T08:31:04.751Z,9.27
2022-10-25T08:33:33.019Z,9.75
2022-10-25T08:36:02.037Z,8.85
2022-10-25T08:38:29.817Z,13.13
2022-10-25T08:41:14.819Z,14.05
2022-10-25T08:46:43.439Z,10.48
2022-10-25T08:49:21.782Z,12.50
2022-10-25T08:51:50.732Z,12.60
2022-10-25T08:54:32.394Z,10.13
2022-10-25T08:57:14.934Z,12.00
2022-10-25T08:59:52.405Z,9.85
2022-10-25T09:02:22.644Z,10.80
2022-10-25T09:04:50.133Z,12.38
2022-10-25T09:07:51.831Z,13.07
2022-10-25T09:10:33.710Z,9.65
2022-10-25T09:13:26.277Z,9.68
2022-10-25T09:16:03.525Z,11.77
2022-10-25T09:18:52.851Z,13.35
2022-10-25T09:21:45.756Z,9.73
2022-10-25T09:24:28.061Z,13.05
2022-10-25T09:27:24.051Z,11.52
2022-10-25T09:30:08.756Z,10.35
2022-10-25T09:32:43.434Z,13.85
2022-10-25T09:35:17.232Z,10.25
2022-10-25T09:38:12.439Z,10.63
2022-10-25T09:41:16.456Z,8.93
2022-10-25T09:44:06.903Z,7.03
2022-10-25T09:46:48.864Z,9.10
2022-10-25T09:49:40.621Z,8.05
2022-10-25T09:52:19.459Z,10.90
2022-10-25T09:54:56.496Z,9.25
2022-10-25T09:57:23.836Z,7.82
2022-10-25T09:59:54.301Z,11.77
2022-10-25T10:02:27.232Z,9.43
2022-10-25T10:04:56.860Z,11.20
2022-10-25T10:07:33.041Z,8.57
2022-10-25T10:10:04.039Z,10.45
2022-10-25T10:12:35.733Z,11.93
2022-10-25T10:15:19.167Z,12.00
2022-10-25T10:17:48.970Z,12.02
2022-10-25T10:20:18.338Z,13.23
2022-10-25T10:22:51.654Z,10.48
2022-10-25T10:25:28.070Z,11.20
2022-10-25T10:27:57.951Z,10.88
2022-10-25T10:30:30.845Z,9.93
2022-10-25T10:33:01.465Z,8.65
2022-10-25T10:35:34.722Z,10.05
2022-10-25T10:38:28.679Z,9.82
2022-10-25T10:41:14.491Z,9.18
2022-10-25T10:43:42.076Z,11.50
2022-10-25T10:46:16.005Z,13.80
2022-10-25T10:48:52.521Z,9.95
2022-10-25T10:51:43.710Z,11.63
2022-10-25T10:54:23.202Z,10.93
2022-10-25T10:57:05.507Z,15.02
2022-10-25T10:59:52.997Z,14.00
2022-10-25T11:02:40.743Z,14.20
2022-10-25T11:05:31.457Z,11.93
2022-10-25T11:08:01.936Z,13.43
2022-10-25T11:10:30.469Z,12.40
2022-10-25T11:13:18.726Z,13.35
2022-10-25T11:16:04.223Z,11.50
2022-10-25T11:18:34.486Z,12.38
2022-10-25T11:21:40.211Z,12.35
2022-10-25T11:24:34.708Z,12.82
2022-10-25T11:27:10.303Z,12.25
2022-10-25T11:30:12.310Z,13.02
2022-10-25T11:32:51.331Z,12.10
2022-10-25T11:35:43.507Z,9.93
2022-10-25T11:38:28.866Z,12.93
2022-10-25T11:41:14.740Z,13.70
2022-10-25T11:44:06.331Z,9.48
2022-10-25T11:46:44.119Z,12.13
2022-10-25T11:49:37.186Z,13.18
2022-10-25T11:52:23.742Z,13.45
2022-10-25T11:55:11.109Z,12.93
2022-10-25T11:58:07.225Z,12.25
2022-10-25T12:00:49.382Z,10.77
2022-10-25T12:03:45.944Z,12.10
2022-10-25T12:06:43.771Z,10.23
2022-10-25T12:09:25.880Z,9.70
2022-10-25T12:12:00.503Z,9.55
2022-10-25T12:14:36.267Z,10.38
2022-10-25T12:17:07.281Z,12.68
2022-10-25T12:19:46.961Z,15.07
2022-10-25T12:22:21.109Z,13.32
2022-10-25T12:24:56.250Z,10.20
2022-10-25T12:27:25.105Z,12.57
2022-10-25T12:30:15.325Z,11.73
2022-10-25T12:32:58.871Z,10.52
2022-10-25T12:35:32.043Z,12.30
2022-10-25T12:38:05.268Z,10.18
2022-10-25T12:40:41.590Z,12.18
2022-10-25T12:43:41.120Z,15.35
2022-10-25T12:46:11.441Z,12.13
2022-10-25T12:48:58.076Z,15.10
2022-10-25T12:51:34.380Z,11.40
2022-10-25T12:54:23.088Z,15.65
2022-10-25T12:57:20.709Z,12.57
2022-10-25T13:00:14.191Z,12.90
2022-10-25T13:03:02.517Z,11.48
2022-10-25T13:06:03.567Z,10.52
2022-10-25T13:08:31.991Z,11.32
2022-10-25T13:11:07.162Z,10.38
2022-10-25T13:13:51.745Z,14.15
2022-10-25T13:16:27.719Z,10.80
2022-10-25T13:19:53.620Z,12.93
2022-10-25T13:22:27.952Z,11.65
2022-10-25T13:24:56.193Z,7.82
2022-10-25T13:27:26.277Z,9.10
2022-10-25T13:30:02.921Z,16.77
2022-10-25T13:32:33.502Z,11.40
2022-10-25T13:35:02.711Z,9.07
2022-10-25T13:37:33.419Z,13.98
2022-10-25T13:40:07.882Z,14.77
2022-10-25T13:42:38.657Z,11.80
2022-10-25T13:45:07.648Z,13.88
2022-10-25T13:47:41.567Z,9.77
2022-10-25T13:50:18.066Z,11.88
2022-10-25T13:53:02.818Z,11.52
2022-10-25T13:55:39.503Z,13.02
2022-10-25T13:58:31.603Z,9.38
2022-10-25T14:01:18.263Z,12.38
2022-10-25T14:04:05.966Z,11.85
2022-10-25T14:06:36.591Z,10.15
2022-10-25T14:09:42.815Z,14.48
2022-10-25T14:12:22.932Z,12.88
2022-10-25T14:15:04.281Z,13.75
2022-10-25T14:17:36.610Z,16.58
2022-10-25T14:20:08.387Z,18.88
2022-10-25T14:22:43.771Z,11.30
2022-10-25T14:25:24.200Z,13.95
2022-10-25T14:28:39.672Z,11.57
2022-10-25T14:31:07.959Z,18.08
2022-10-25T14:33:56.359Z,14.57
2022-10-25T14:36:41.644Z,17.33
2022-10-25T14:39:17.750Z,8.48
2022-10-25T14:41:56.419Z,16.42
2022-10-25T14:44:47.449Z,14.18
2022-10-25T14:47:36.058Z,18.77
2022-10-25T14:50:03.506Z,15.30
2022-10-25T14:52:31.617Z,15.07
2022-10-25T14:55:04.082Z,11.57
2022-10-25T14:57:33.325Z,14.95
2022-10-25T15:00:03.819Z,15.38
2022-10-25T15:02:39.894Z,14.35
2022-10-25T15:05:07.944Z,13.43
2022-10-25T15:07:46.947Z,12.30
2022-10-25T15:10:43.121Z,11.13
2022-10-25T15:13:20.780Z,11.10
2022-10-25T15:15:50.619Z,10.20
2022-10-25T15:18:26.759Z,8.95
2022-10-25T15:21:24.975Z,8.48
2022-10-25T15:24:13.630Z,11.40
2022-10-25T15:26:54.787Z,13.13
2022-10-25T15:29:55.440Z,7.70
2022-10-25T15:32:27.525Z,13.40
2022-10-25T15:35:02.952Z,9.20
2022-10-25T15:37:30.617Z,9.38
2022-10-25T15:39:58.110Z,8.57
2022-10-25T15:42:26.581Z,8.93
2022-10-25T15:44:53.873Z,7.30
2022-10-25T15:47:33.445Z,7.70
2022-10-25T15:50:03.813Z,9.32
2022-10-25T15:52:31.200Z,8.23
2022-10-25T15:54:58.613Z,11.43
2022-10-25T15:57:27.267Z,10.10
2022-10-25T15:59:57.347Z,12.52
2022-10-25T16:02:28.313Z,13.05
2022-10-25T16:04:55.646Z,11.65
2022-10-25T16:07:23.175Z,6.03
2022-10-25T16:09:50.378Z,6.72
2022-10-25T16:12:21.332Z,6.25
2022-10-25T16:14:57.092Z,8.35
2022-10-25T16:19:52.925Z,7.13
2022-10-25T16:22:20.205Z,7.97
2022-10-25T16:24:50.543Z,8.73
2022-10-25T16:27:18.736Z,8.38
2022-10-25T16:29:47.147Z,9.27
2022-10-25T16:32:14.510Z,18.25
2022-10-25T16:34:45.905Z,18.65
2022-10-25T16:37:13.093Z,16.65
2022-10-25T16:39:40.334Z,15.35
2022-10-25T16:42:26.433Z,9.68
2022-10-25T16:44:53.865Z,11.75
2022-10-25T16:47:23.935Z,11.70
2022-10-25T16:49:51.361Z,11.07
2022-10-25T16:52:21.840Z,11.55
2022-10-25T16:54:49.054Z,11.85
2022-10-25T16:57:16.439Z,8.20
2022-10-25T16:59:43.759Z,10.48
2022-10-25T17:02:22.156Z,11.40
2022-10-25T17:04:50.187Z,8.25
2022-10-25T17:07:18.150Z,8.35
2022-10-25T17:09:45.661Z,9.60
2022-10-25T17:12:15.374Z,10.77
2022-10-25T17:14:43.186Z,14.07
2022-10-25T17:17:10.807Z,12.02
2022-10-25T17:19:41.695Z,11.88
2022-10-25T17:22:09.012Z,12.38
2022-10-25T17:24:38.905Z,11.32
2022-10-25T17:27:07.297Z,12.02
2022-10-25T17:29:34.664Z,10.25
2022-10-25T17:32:04.114Z,10.93
2022-10-25T17:34:33.918Z,10.68
2022-10-25T17:37:02.276Z,12.88
2022-10-25T17:39:29.952Z,7.47
2022-10-25T17:41:57.471Z,14.60
2022-10-25T17:44:27.269Z,10.82
2022-10-25T17:49:37.994Z,7.63
2022-10-25T17:52:07.145Z,9.55
2022-10-25T17:54:40.503Z,10.70
2022-10-25T17:57:07.937Z,8.82
2022-10-25T17:59:35.838Z,7.68
2022-10-25T18:02:03.309Z,11.90
2022-10-25T18:04:41.926Z,8.88
2022-10-25T18:07:17.989Z,8.70
2022-10-25T18:09:59.782Z,11.20
2022-10-25T18:12:29.194Z,11.18
2022-10-25T18:14:56.611Z,12.23
2022-10-25T18:17:23.948Z,7.60
2022-10-25T18:19:51.159Z,9.43
2022-10-25T18:22:21.142Z,9.85
2022-10-25T18:24:48.541Z,10.45
2022-10-25T18:27:16.872Z,11.27
2022-10-25T18:30:07.626Z,17.50
2022-10-25T18:32:36.473Z,11.88
2022-10-25T18:35:03.968Z,10.90
2022-10-25T18:37:31.327Z,10.00
2022-10-25T18:40:10.177Z,13.30
2022-10-25T18:42:38.246Z,12.10
2022-10-25T18:45:07.612Z,9.38
2022-10-25T18:47:35.954Z,7.45
2022-10-25T18:50:04.743Z,12.82
2022-10-25T18:52:32.224Z,8.05
2022-10-25T18:54:59.479Z,13.30
2022-10-25T18:57:29.770Z,10.43
2022-10-25T18:59:57.124Z,9.38
2022-10-25T19:02:24.520Z,11.10
2022-10-25T19:04:51.819Z,8.95
2022-10-25T19:07:19.149Z,13.02
2022-10-25T19:09:46.714Z,11.30
2022-10-25T19:12:13.977Z,11.77
2022-10-25T19:14:45.639Z,13.93
2022-10-25T19:17:14.572Z,10.35
2022-10-25T19:19:46.628Z,13.43
2022-10-25T19:22:17.076Z,8.90
2022-10-25T19:24:49.856Z,16.48
2022-10-25T19:27:17.315Z,11.27
2022-10-25T19:29:44.566Z,11.52
2022-10-25T19:32:12.339Z,13.75
2022-10-25T19:37:19.080Z,15.35
2022-10-25T19:39:46.411Z,12.80
2022-10-25T19:42:18.464Z,13.48
2022-10-25T19:44:49.614Z,17.60
2022-10-25T19:47:19.555Z,15.02
2022-10-25T19:49:47.050Z,15.75
2022-10-25T19:52:23.078Z,17.35
2022-10-25T19:54:50.700Z,17.75
2022-10-25T19:57:20.593Z,14.00
2022-10-25T19:59:48.009Z,14.15
2022-10-25T20:02:17.904Z,16.08
2022-10-25T20:04:50.722Z,16.90
2022-10-25T20:07:26.324Z,15.20
2022-10-25T20:10:18.912Z,13.32
2022-10-25T20:12:58.260Z,15.88
2022-10-25T20:15:28.034Z,15.60
2022-10-25T20:17:59.006Z,16.08
2022-10-25T20:20:38.988Z,13.90
2022-10-25T20:23:08.956Z,16.67
2022-10-25T20:25:54.749Z,12.00
2022-10-25T20:28:38.211Z,16.55
2022-10-25T20:31:08.203Z,15.68
2022-10-25T20:33:38.797Z,15.48
2022-10-25T20:36:10.887Z,15.82
2022-10-25T20:38:38.750Z,11.25
2022-10-25T20:41:24.907Z,12.75
2022-10-25T20:44:11.363Z,17.13
2022-10-25T20:46:57.575Z,16.58
2022-10-25T20:49:26.844Z,15.73
2022-10-25T20:51:57.803Z,15.38
2022-10-25T20:58:51.925Z,21.63
2022-10-25T21:01:26.561Z,16.97
2022-10-25T21:03:54.260Z,15.75
2022-10-25T21:06:25.524Z,17.08
2022-10-25T21:08:53.122Z,18.42
2022-10-25T21:11:20.527Z,14.85
2022-10-25T21:13:50.175Z,22.23
2022-10-25T21:16:20.388Z,15.35
2022-10-25T21:18:48.103Z,14.88
2022-10-25T21:21:20.040Z,14.88
2022-10-25T21:24:17.007Z,17.70
2022-10-25T21:30:11.232Z,16.92
2022-10-25T21:32:38.499Z,14.63
2022-10-25T21:35:05.921Z,13.35
2022-10-25T21:37:46.840Z,13.98
2022-10-25T21:40:19.617Z,17.08
2022-10-25T21:42:49.164Z,21.20
2022-10-25T21:45:18.612Z,16.88
2022-10-25T21:47:48.140Z,14.45
2022-10-25T21:50:17.864Z,13.88
2022-10-25T21:52:45.076Z,15.13
2022-10-25T21:55:16.531Z,17.40
2022-10-25T21:57:48.228Z,19.38
2022-10-25T22:00:19.220Z,20.27
2022-10-25T22:02:46.483Z,19.63
2022-10-25T22:05:13.792Z,21.20
2022-10-25T22:07:41.012Z,18.42
2022-10-25T22:10:08.630Z,18.83
2022-10-25T22:12:38.519Z,19.23
2022-10-25T22:15:06.365Z,20.65
2022-10-25T22:17:38.321Z,17.98
2022-10-25T22:20:09.309Z,20.52
2022-10-25T22:22:36.567Z,18.35
2022-10-25T22:25:04.059Z,17.30
2022-10-25T22:27:31.623Z,19.17
2022-10-25T22:29:59.142Z,20.42
2022-10-25T22:32:26.401Z,20.20
2022-10-25T22:34:59.386Z,22.48
2022-10-25T22:37:29.133Z,19.50
2022-10-25T22:39:58.643Z,20.23
2022-10-25T22:42:28.096Z,19.70
2022-10-25T22:44:56.336Z,18.40
2022-10-25T22:47:24.750Z,20.33
2022-10-25T22:49:52.009Z,17.30
2022-10-25T22:52:25.931Z,16.35
2022-10-25T22:54:53.905Z,17.42
2022-10-25T22:57:21.403Z,16.42
2022-10-25T22:59:48.680Z,20.08
2022-10-25T23:02:15.927Z,19.67
2022-10-25T23:05:00.407Z,18.92
2022-10-25T23:07:30.466Z,16.40
2022-10-25T23:09:59.936Z,20.27
2022-10-25T23:12:27.190Z,19.30
2022-10-25T23:14:54.508Z,17.05
2022-10-25T23:17:21.746Z,19.05
2022-10-25T23:19:49.200Z,22.15
2022-10-25T23:22:16.521Z,18.75
2022-10-25T23:24:43.866Z,17.80
2022-10-25T23:27:11.056Z,20.27
2022-10-25T23:29:48.396Z,23.13
2022-10-25T23:32:16.812Z,20.52
2022-10-25T23:34:44.069Z,18.27
2022-10-25T23:37:11.391Z,17.33
2022-10-25T23:39:39.467Z,19.17
2022-10-25T23:42:06.757Z,22.33
2022-10-25T23:44:33.963Z,18.77
2022-10-25T23:47:01.680Z,17.10
2022-10-25T23:49:36.852Z,20.23
2022-10-25T23:52:04.245Z,17.83
2022-10-25T23:54:31.578Z,20.90
2022-10-25T23:56:58.795Z,19.20
2022-10-25T23:59:38.712Z,19.35
